sensor_id;sensor_type;location;lat;lon;timestamp;P1;durP1;ratioP1;P2;durP2;ratioP2
70228;SDS011;57617;51.988;5.854;2023-04-06T00:00:45;16.48;;;6.93;;
70228;SDS011;57617;51.988;5.854;2023-04-06T00:03:10;20.00;;;7.18;;
70228;SDS011;57617;51.988;5.854;2023-04-06T00:05:36;16.67;;;7.35;;
70228;SDS011;57617;51.988;5.854;2023-04-06T00:08:01;15.80;;;7.70;;
70228;SDS011;57617;51.988;5.854;2023-04-06T00:10:26;15.85;;;7.68;;
70228;SDS011;57617;51.988;5.854;2023-04-06T00:12:52;15.10;;;7.20;;
70228;SDS011;57617;51.988;5.854;2023-04-06T00:15:18;13.70;;;6.90;;
70228;SDS011;57617;51.988;5.854;2023-04-06T00:17:44;13.73;;;6.57;;
70228;SDS011;57617;51.988;5.854;2023-04-06T00:20:09;14.82;;;7.20;;
70228;SDS011;57617;51.988;5.854;2023-04-06T00:22:35;14.93;;;7.28;;
70228;SDS011;57617;51.988;5.854;2023-04-06T00:25:00;15.50;;;6.82;;
70228;SDS011;57617;51.988;5.854;2023-04-06T00:27:26;13.90;;;6.90;;
70228;SDS011;57617;51.988;5.854;2023-04-06T00:29:51;14.07;;;6.70;;
70228;SDS011;57617;51.988;5.854;2023-04-06T00:32:17;13.70;;;6.68;;
70228;SDS011;57617;51.988;5.854;2023-04-06T00:34:42;16.80;;;7.45;;
70228;SDS011;57617;51.988;5.854;2023-04-06T00:37:08;15.18;;;7.25;;
70228;SDS011;57617;51.988;5.854;2023-04-06T00:39:33;16.10;;;7.45;;
70228;SDS011;57617;51.988;5.854;2023-04-06T00:41:58;14.38;;;7.15;;
70228;SDS011;57617;51.988;5.854;2023-04-06T00:44:25;12.48;;;6.90;;
70228;SDS011;57617;51.988;5.854;2023-04-06T00:46:50;15.05;;;7.05;;
70228;SDS011;57617;51.988;5.854;2023-04-06T00:49:15;14.57;;;7.43;;
70228;SDS011;57617;51.988;5.854;2023-04-06T00:51:41;16.92;;;7.60;;
70228;SDS011;57617;51.988;5.854;2023-04-06T00:54:06;15.07;;;7.22;;
70228;SDS011;57617;51.988;5.854;2023-04-06T00:56:31;15.88;;;7.50;;
70228;SDS011;57617;51.988;5.854;2023-04-06T00:58:57;15.30;;;7.78;;
70228;SDS011;57617;51.988;5.854;2023-04-06T01:01:23;14.18;;;7.15;;
70228;SDS011;57617;51.988;5.854;2023-04-06T01:03:49;15.95;;;7.55;;
70228;SDS011;57617;51.988;5.854;2023-04-06T01:06:15;15.35;;;7.35;;
70228;SDS011;57617;51.988;5.854;2023-04-06T01:08:41;17.60;;;7.15;;
70228;SDS011;57617;51.988;5.854;2023-04-06T01:11:06;17.23;;;7.10;;
70228;SDS011;57617;51.988;5.854;2023-04-06T01:13:31;15.05;;;7.38;;
70228;SDS011;57617;51.988;5.854;2023-04-06T01:15:57;16.25;;;7.65;;
70228;SDS011;57617;51.988;5.854;2023-04-06T01:18:26;15.63;;;7.60;;
70228;SDS011;57617;51.988;5.854;2023-04-06T01:20:52;21.27;;;7.28;;
70228;SDS011;57617;51.988;5.854;2023-04-06T01:23:17;14.95;;;7.70;;
70228;SDS011;57617;51.988;5.854;2023-04-06T01:25:42;17.13;;;7.53;;
70228;SDS011;57617;51.988;5.854;2023-04-06T01:28:08;17.90;;;7.38;;
70228;SDS011;57617;51.988;5.854;2023-04-06T01:30:33;16.67;;;7.28;;
70228;SDS011;57617;51.988;5.854;2023-04-06T01:32:58;15.98;;;7.20;;
70228;SDS011;57617;51.988;5.854;2023-04-06T01:35:27;20.65;;;7.68;;
70228;SDS011;57617;51.988;5.854;2023-04-06T01:37:53;17.15;;;7.57;;
70228;SDS011;57617;51.988;5.854;2023-04-06T01:40:18;14.10;;;7.10;;
70228;SDS011;57617;51.988;5.854;2023-04-06T01:42:44;16.52;;;7.53;;
70228;SDS011;57617;51.988;5.854;2023-04-06T01:45:09;18.15;;;8.02;;
70228;SDS011;57617;51.988;5.854;2023-04-06T01:47:35;14.57;;;7.55;;
70228;SDS011;57617;51.988;5.854;2023-04-06T01:50:00;15.52;;;7.20;;
70228;SDS011;57617;51.988;5.854;2023-04-06T01:52:27;15.07;;;7.50;;
70228;SDS011;57617;51.988;5.854;2023-04-06T01:54:53;16.88;;;7.63;;
70228;SDS011;57617;51.988;5.854;2023-04-06T01:57:19;16.38;;;7.97;;
70228;SDS011;57617;51.988;5.854;2023-04-06T01:59:45;16.35;;;7.10;;
70228;SDS011;57617;51.988;5.854;2023-04-06T02:02:10;17.38;;;8.07;;
70228;SDS011;57617;51.988;5.854;2023-04-06T02:04:35;15.20;;;7.82;;
70228;SDS011;57617;51.988;5.854;2023-04-06T02:07:00;17.38;;;8.00;;
70228;SDS011;57617;51.988;5.854;2023-04-06T02:09:26;17.52;;;8.07;;
70228;SDS011;57617;51.988;5.854;2023-04-06T02:11:51;17.15;;;7.80;;
70228;SDS011;57617;51.988;5.854;2023-04-06T02:14:16;16.13;;;7.47;;
70228;SDS011;57617;51.988;5.854;2023-04-06T02:16:42;15.73;;;7.35;;
70228;SDS011;57617;51.988;5.854;2023-04-06T02:19:07;14.48;;;7.20;;
70228;SDS011;57617;51.988;5.854;2023-04-06T02:21:32;14.60;;;7.47;;
70228;SDS011;57617;51.988;5.854;2023-04-06T02:23:57;16.13;;;7.80;;
70228;SDS011;57617;51.988;5.854;2023-04-06T02:26:23;16.42;;;7.70;;
70228;SDS011;57617;51.988;5.854;2023-04-06T02:28:48;16.30;;;8.13;;
70228;SDS011;57617;51.988;5.854;2023-04-06T02:31:14;16.67;;;8.05;;
70228;SDS011;57617;51.988;5.854;2023-04-06T02:33:40;17.83;;;8.52;;
70228;SDS011;57617;51.988;5.854;2023-04-06T02:36:05;15.38;;;8.05;;
70228;SDS011;57617;51.988;5.854;2023-04-06T02:38:31;19.83;;;8.38;;
70228;SDS011;57617;51.988;5.854;2023-04-06T02:40:56;18.27;;;8.30;;
70228;SDS011;57617;51.988;5.854;2023-04-06T02:43:21;18.00;;;8.20;;
70228;SDS011;57617;51.988;5.854;2023-04-06T02:45:46;16.08;;;7.57;;
70228;SDS011;57617;51.988;5.854;2023-04-06T02:48:12;18.58;;;8.30;;
70228;SDS011;57617;51.988;5.854;2023-04-06T02:50:37;21.17;;;8.63;;
70228;SDS011;57617;51.988;5.854;2023-04-06T02:53:02;17.33;;;8.55;;
70228;SDS011;57617;51.988;5.854;2023-04-06T02:55:27;18.90;;;8.88;;
70228;SDS011;57617;51.988;5.854;2023-04-06T02:57:53;17.05;;;8.07;;
70228;SDS011;57617;51.988;5.854;2023-04-06T03:00:18;17.73;;;8.10;;
70228;SDS011;57617;51.988;5.854;2023-04-06T03:02:43;19.20;;;8.30;;
70228;SDS011;57617;51.988;5.854;2023-04-06T03:05:09;19.48;;;8.50;;
70228;SDS011;57617;51.988;5.854;2023-04-06T03:07:34;18.05;;;8.65;;
70228;SDS011;57617;51.988;5.854;2023-04-06T03:10:00;21.40;;;8.27;;
70228;SDS011;57617;51.988;5.854;2023-04-06T03:12:25;19.30;;;8.10;;
70228;SDS011;57617;51.988;5.854;2023-04-06T03:14:50;17.90;;;8.90;;
70228;SDS011;57617;51.988;5.854;2023-04-06T03:17:15;20.17;;;9.07;;
70228;SDS011;57617;51.988;5.854;2023-04-06T03:19:41;17.35;;;8.23;;
70228;SDS011;57617;51.988;5.854;2023-04-06T03:22:06;16.93;;;8.10;;
70228;SDS011;57617;51.988;5.854;2023-04-06T03:24:31;20.90;;;8.90;;
70228;SDS011;57617;51.988;5.854;2023-04-06T03:26:57;19.92;;;8.32;;
70228;SDS011;57617;51.988;5.854;2023-04-06T03:29:22;19.35;;;8.23;;
70228;SDS011;57617;51.988;5.854;2023-04-06T03:31:47;20.10;;;10.10;;
70228;SDS011;57617;51.988;5.854;2023-04-06T03:34:13;17.17;;;8.85;;
70228;SDS011;57617;51.988;5.854;2023-04-06T03:36:38;17.83;;;8.50;;
70228;SDS011;57617;51.988;5.854;2023-04-06T03:39:03;17.02;;;7.97;;
70228;SDS011;57617;51.988;5.854;2023-04-06T03:41:29;16.30;;;7.80;;
70228;SDS011;57617;51.988;5.854;2023-04-06T03:43:54;18.17;;;8.32;;
70228;SDS011;57617;51.988;5.854;2023-04-06T03:46:20;17.42;;;7.85;;
70228;SDS011;57617;51.988;5.854;2023-04-06T03:48:48;19.15;;;8.80;;
70228;SDS011;57617;51.988;5.854;2023-04-06T03:51:13;19.83;;;8.20;;
70228;SDS011;57617;51.988;5.854;2023-04-06T03:53:38;15.93;;;7.80;;
70228;SDS011;57617;51.988;5.854;2023-04-06T03:56:04;15.32;;;7.90;;
70228;SDS011;57617;51.988;5.854;2023-04-06T03:58:29;16.58;;;8.02;;
70228;SDS011;57617;51.988;5.854;2023-04-06T04:00:55;16.73;;;8.30;;
70228;SDS011;57617;51.988;5.854;2023-04-06T04:03:21;17.25;;;8.27;;
70228;SDS011;57617;51.988;5.854;2023-04-06T04:05:48;16.92;;;8.23;;
70228;SDS011;57617;51.988;5.854;2023-04-06T04:08:13;19.95;;;8.30;;
70228;SDS011;57617;51.988;5.854;2023-04-06T04:10:38;16.80;;;8.20;;
70228;SDS011;57617;51.988;5.854;2023-04-06T04:13:04;18.17;;;7.90;;
70228;SDS011;57617;51.988;5.854;2023-04-06T04:15:29;16.35;;;8.68;;
70228;SDS011;57617;51.988;5.854;2023-04-06T04:17:54;15.57;;;7.82;;
70228;SDS011;57617;51.988;5.854;2023-04-06T04:20:20;18.23;;;8.20;;
70228;SDS011;57617;51.988;5.854;2023-04-06T04:22:45;17.00;;;7.72;;
70228;SDS011;57617;51.988;5.854;2023-04-06T04:25:10;17.08;;;8.38;;
70228;SDS011;57617;51.988;5.854;2023-04-06T04:27:35;19.02;;;8.23;;
70228;SDS011;57617;51.988;5.854;2023-04-06T04:30:01;22.38;;;8.90;;
70228;SDS011;57617;51.988;5.854;2023-04-06T04:32:26;16.58;;;8.52;;
70228;SDS011;57617;51.988;5.854;2023-04-06T04:34:52;19.58;;;8.60;;
70228;SDS011;57617;51.988;5.854;2023-04-06T04:37:18;22.77;;;9.60;;
70228;SDS011;57617;51.988;5.854;2023-04-06T04:39:44;18.08;;;8.50;;
70228;SDS011;57617;51.988;5.854;2023-04-06T04:42:10;18.33;;;8.60;;
70228;SDS011;57617;51.988;5.854;2023-04-06T04:44:35;17.33;;;8.63;;
70228;SDS011;57617;51.988;5.854;2023-04-06T04:47:01;16.98;;;8.38;;
70228;SDS011;57617;51.988;5.854;2023-04-06T04:49:26;19.80;;;8.65;;
70228;SDS011;57617;51.988;5.854;2023-04-06T04:51:51;18.42;;;9.00;;
70228;SDS011;57617;51.988;5.854;2023-04-06T04:54:17;20.10;;;8.73;;
70228;SDS011;57617;51.988;5.854;2023-04-06T04:56:42;19.10;;;8.57;;
70228;SDS011;57617;51.988;5.854;2023-04-06T04:59:08;19.15;;;8.80;;
70228;SDS011;57617;51.988;5.854;2023-04-06T05:01:33;19.60;;;8.70;;
70228;SDS011;57617;51.988;5.854;2023-04-06T05:03:58;21.00;;;9.18;;
70228;SDS011;57617;51.988;5.854;2023-04-06T05:06:24;17.33;;;8.80;;
70228;SDS011;57617;51.988;5.854;2023-04-06T05:08:50;20.02;;;8.88;;
70228;SDS011;57617;51.988;5.854;2023-04-06T05:11:15;22.23;;;9.85;;
70228;SDS011;57617;51.988;5.854;2023-04-06T05:13:41;19.60;;;10.30;;
70228;SDS011;57617;51.988;5.854;2023-04-06T05:16:06;24.92;;;10.05;;
70228;SDS011;57617;51.988;5.854;2023-04-06T05:18:31;21.67;;;10.47;;
70228;SDS011;57617;51.988;5.854;2023-04-06T05:20:57;24.60;;;10.13;;
70228;SDS011;57617;51.988;5.854;2023-04-06T05:23:22;21.38;;;10.18;;
70228;SDS011;57617;51.988;5.854;2023-04-06T05:25:47;23.30;;;10.43;;
70228;SDS011;57617;51.988;5.854;2023-04-06T05:28:13;23.27;;;10.02;;
70228;SDS011;57617;51.988;5.854;2023-04-06T05:30:40;21.70;;;10.23;;
70228;SDS011;57617;51.988;5.854;2023-04-06T05:33:05;20.40;;;9.70;;
70228;SDS011;57617;51.988;5.854;2023-04-06T05:35:31;19.98;;;9.93;;
70228;SDS011;57617;51.988;5.854;2023-04-06T05:37:56;21.75;;;10.02;;
70228;SDS011;57617;51.988;5.854;2023-04-06T05:40:21;26.10;;;10.18;;
70228;SDS011;57617;51.988;5.854;2023-04-06T05:42:46;20.17;;;9.93;;
70228;SDS011;57617;51.988;5.854;2023-04-06T05:45:12;24.75;;;10.15;;
70228;SDS011;57617;51.988;5.854;2023-04-06T05:47:41;22.25;;;10.48;;
70228;SDS011;57617;51.988;5.854;2023-04-06T05:50:10;23.20;;;9.77;;
70228;SDS011;57617;51.988;5.854;2023-04-06T05:52:36;33.72;;;10.80;;
70228;SDS011;57617;51.988;5.854;2023-04-06T05:55:02;25.25;;;11.02;;
70228;SDS011;57617;51.988;5.854;2023-04-06T05:57:28;28.33;;;10.85;;
70228;SDS011;57617;51.988;5.854;2023-04-06T05:59:53;23.85;;;10.38;;
70228;SDS011;57617;51.988;5.854;2023-04-06T06:02:20;23.25;;;11.13;;
70228;SDS011;57617;51.988;5.854;2023-04-06T06:04:45;23.42;;;10.45;;
70228;SDS011;57617;51.988;5.854;2023-04-06T06:07:11;22.65;;;10.13;;
70228;SDS011;57617;51.988;5.854;2023-04-06T06:09:36;27.75;;;10.77;;
70228;SDS011;57617;51.988;5.854;2023-04-06T06:12:01;27.52;;;10.75;;
70228;SDS011;57617;51.988;5.854;2023-04-06T06:14:26;22.95;;;10.50;;
70228;SDS011;57617;51.988;5.854;2023-04-06T06:16:54;23.35;;;11.30;;
70228;SDS011;57617;51.988;5.854;2023-04-06T06:19:20;24.77;;;11.38;;
70228;SDS011;57617;51.988;5.854;2023-04-06T06:21:45;24.55;;;11.38;;
70228;SDS011;57617;51.988;5.854;2023-04-06T06:24:10;27.67;;;10.95;;
70228;SDS011;57617;51.988;5.854;2023-04-06T06:26:36;25.85;;;11.25;;
70228;SDS011;57617;51.988;5.854;2023-04-06T06:29:02;24.67;;;11.23;;
70228;SDS011;57617;51.988;5.854;2023-04-06T06:31:28;22.38;;;10.98;;
70228;SDS011;57617;51.988;5.854;2023-04-06T06:33:53;25.52;;;10.98;;
70228;SDS011;57617;51.988;5.854;2023-04-06T06:36:19;24.17;;;11.27;;
70228;SDS011;57617;51.988;5.854;2023-04-06T06:38:44;25.23;;;11.93;;
70228;SDS011;57617;51.988;5.854;2023-04-06T06:41:10;25.13;;;11.52;;
70228;SDS011;57617;51.988;5.854;2023-04-06T06:43:36;23.70;;;11.07;;
70228;SDS011;57617;51.988;5.854;2023-04-06T06:46:01;25.92;;;11.38;;
70228;SDS011;57617;51.988;5.854;2023-04-06T06:48:27;26.30;;;10.98;;
70228;SDS011;57617;51.988;5.854;2023-04-06T06:50:52;24.30;;;11.07;;
70228;SDS011;57617;51.988;5.854;2023-04-06T06:53:17;26.27;;;11.02;;
70228;SDS011;57617;51.988;5.854;2023-04-06T06:55:43;26.85;;;10.82;;
70228;SDS011;57617;51.988;5.854;2023-04-06T06:58:11;23.00;;;11.27;;
70228;SDS011;57617;51.988;5.854;2023-04-06T07:00:36;24.63;;;11.02;;
70228;SDS011;57617;51.988;5.854;2023-04-06T07:03:02;24.02;;;11.25;;
70228;SDS011;57617;51.988;5.854;2023-04-06T07:05:27;29.52;;;11.32;;
70228;SDS011;57617;51.988;5.854;2023-04-06T07:07:52;31.73;;;11.68;;
70228;SDS011;57617;51.988;5.854;2023-04-06T07:10:18;26.02;;;11.30;;
70228;SDS011;57617;51.988;5.854;2023-04-06T07:12:43;24.65;;;11.68;;
70228;SDS011;57617;51.988;5.854;2023-04-06T07:15:09;27.55;;;11.30;;
70228;SDS011;57617;51.988;5.854;2023-04-06T07:17:34;26.30;;;11.85;;
70228;SDS011;57617;51.988;5.854;2023-04-06T07:20:00;27.92;;;11.38;;
70228;SDS011;57617;51.988;5.854;2023-04-06T07:22:25;25.52;;;11.40;;
70228;SDS011;57617;51.988;5.854;2023-04-06T07:24:50;25.95;;;11.95;;
70228;SDS011;57617;51.988;5.854;2023-04-06T07:27:16;26.52;;;11.82;;
70228;SDS011;57617;51.988;5.854;2023-04-06T07:29:42;25.63;;;11.23;;
70228;SDS011;57617;51.988;5.854;2023-04-06T07:32:07;26.33;;;11.15;;
70228;SDS011;57617;51.988;5.854;2023-04-06T07:34:32;28.52;;;11.88;;
70228;SDS011;57617;51.988;5.854;2023-04-06T07:36:58;28.13;;;12.27;;
70228;SDS011;57617;51.988;5.854;2023-04-06T07:39:24;22.95;;;11.60;;
70228;SDS011;57617;51.988;5.854;2023-04-06T07:41:51;23.83;;;11.60;;
70228;SDS011;57617;51.988;5.854;2023-04-06T07:44:16;26.92;;;11.48;;
70228;SDS011;57617;51.988;5.854;2023-04-06T07:46:42;28.45;;;11.50;;
70228;SDS011;57617;51.988;5.854;2023-04-06T07:49:07;25.90;;;11.85;;
70228;SDS011;57617;51.988;5.854;2023-04-06T07:51:32;27.50;;;12.27;;
70228;SDS011;57617;51.988;5.854;2023-04-06T07:54:01;25.20;;;11.65;;
70228;SDS011;57617;51.988;5.854;2023-04-06T07:56:26;25.83;;;11.80;;
70228;SDS011;57617;51.988;5.854;2023-04-06T07:58:51;28.67;;;12.07;;
70228;SDS011;57617;51.988;5.854;2023-04-06T08:01:17;23.33;;;10.77;;
70228;SDS011;57617;51.988;5.854;2023-04-06T08:03:42;25.67;;;11.82;;
70228;SDS011;57617;51.988;5.854;2023-04-06T08:06:07;28.77;;;12.60;;
70228;SDS011;57617;51.988;5.854;2023-04-06T08:08:33;25.17;;;12.10;;
70228;SDS011;57617;51.988;5.854;2023-04-06T08:10:58;34.05;;;12.95;;
70228;SDS011;57617;51.988;5.854;2023-04-06T08:13:23;26.63;;;12.10;;
70228;SDS011;57617;51.988;5.854;2023-04-06T08:15:48;27.75;;;11.80;;
70228;SDS011;57617;51.988;5.854;2023-04-06T08:18:14;27.58;;;12.40;;
70228;SDS011;57617;51.988;5.854;2023-04-06T08:20:40;22.67;;;11.13;;
70228;SDS011;57617;51.988;5.854;2023-04-06T08:23:05;23.92;;;11.80;;
70228;SDS011;57617;51.988;5.854;2023-04-06T08:25:31;27.42;;;11.32;;
70228;SDS011;57617;51.988;5.854;2023-04-06T08:27:59;24.50;;;11.65;;
70228;SDS011;57617;51.988;5.854;2023-04-06T08:30:24;24.40;;;11.63;;
70228;SDS011;57617;51.988;5.854;2023-04-06T08:32:49;24.42;;;11.90;;
70228;SDS011;57617;51.988;5.854;2023-04-06T08:35:15;27.55;;;12.40;;
70228;SDS011;57617;51.988;5.854;2023-04-06T08:37:40;23.45;;;11.63;;
70228;SDS011;57617;51.988;5.854;2023-04-06T08:40:06;26.95;;;12.65;;
70228;SDS011;57617;51.988;5.854;2023-04-06T08:42:32;24.20;;;11.43;;
70228;SDS011;57617;51.988;5.854;2023-04-06T08:44:58;27.80;;;12.40;;
70228;SDS011;57617;51.988;5.854;2023-04-06T08:47:24;27.35;;;11.85;;
70228;SDS011;57617;51.988;5.854;2023-04-06T08:49:50;28.35;;;12.27;;
70228;SDS011;57617;51.988;5.854;2023-04-06T08:52:17;27.13;;;11.70;;
70228;SDS011;57617;51.988;5.854;2023-04-06T08:54:43;26.48;;;12.40;;
70228;SDS011;57617;51.988;5.854;2023-04-06T08:57:09;27.52;;;11.75;;
70228;SDS011;57617;51.988;5.854;2023-04-06T08:59:35;23.88;;;11.93;;
70228;SDS011;57617;51.988;5.854;2023-04-06T09:02:02;27.88;;;12.52;;
70228;SDS011;57617;51.988;5.854;2023-04-06T09:04:28;28.67;;;12.65;;
70228;SDS011;57617;51.988;5.854;2023-04-06T09:06:53;27.13;;;12.30;;
70228;SDS011;57617;51.988;5.854;2023-04-06T09:09:19;29.45;;;12.35;;
70228;SDS011;57617;51.988;5.854;2023-04-06T09:11:45;27.52;;;12.38;;
70228;SDS011;57617;51.988;5.854;2023-04-06T09:14:12;25.48;;;12.82;;
70228;SDS011;57617;51.988;5.854;2023-04-06T09:16:44;28.27;;;12.00;;
70228;SDS011;57617;51.988;5.854;2023-04-06T09:19:10;32.47;;;13.80;;
70228;SDS011;57617;51.988;5.854;2023-04-06T09:21:37;29.13;;;13.38;;
70228;SDS011;57617;51.988;5.854;2023-04-06T09:24:05;26.75;;;12.70;;
70228;SDS011;57617;51.988;5.854;2023-04-06T09:26:31;25.38;;;12.90;;
70228;SDS011;57617;51.988;5.854;2023-04-06T09:28:58;31.48;;;13.45;;
70228;SDS011;57617;51.988;5.854;2023-04-06T09:31:29;30.80;;;14.38;;
70228;SDS011;57617;51.988;5.854;2023-04-06T09:33:57;31.40;;;14.38;;
70228;SDS011;57617;51.988;5.854;2023-04-06T09:36:33;31.52;;;14.63;;
70228;SDS011;57617;51.988;5.854;2023-04-06T09:39:01;27.38;;;13.93;;
70228;SDS011;57617;51.988;5.854;2023-04-06T09:41:28;33.72;;;15.02;;
70228;SDS011;57617;51.988;5.854;2023-04-06T09:44:03;30.15;;;14.25;;
70228;SDS011;57617;51.988;5.854;2023-04-06T09:46:33;32.00;;;15.07;;
70228;SDS011;57617;51.988;5.854;2023-04-06T09:49:03;32.25;;;15.02;;
70228;SDS011;57617;51.988;5.854;2023-04-06T09:54:28;33.60;;;15.10;;
70228;SDS011;57617;51.988;5.854;2023-04-06T09:56:56;30.58;;;14.65;;
70228;SDS011;57617;51.988;5.854;2023-04-06T10:02:20;33.20;;;14.85;;
70228;SDS011;57617;51.988;5.854;2023-04-06T10:05:17;31.13;;;14.65;;
70228;SDS011;57617;51.988;5.854;2023-04-06T10:07:47;30.38;;;14.57;;
70228;SDS011;57617;51.988;5.854;2023-04-06T10:10:15;31.83;;;14.65;;
70228;SDS011;57617;51.988;5.854;2023-04-06T10:12:41;31.77;;;14.70;;
70228;SDS011;57617;51.988;5.854;2023-04-06T10:15:07;39.38;;;14.98;;
70228;SDS011;57617;51.988;5.854;2023-04-06T10:17:33;28.30;;;14.05;;
70228;SDS011;57617;51.988;5.854;2023-04-06T10:20:03;33.30;;;14.52;;
70228;SDS011;57617;51.988;5.854;2023-04-06T10:22:34;31.02;;;14.23;;
70228;SDS011;57617;51.988;5.854;2023-04-06T10:25:08;31.23;;;14.38;;
70228;SDS011;57617;51.988;5.854;2023-04-06T10:27:34;30.58;;;14.50;;
70228;SDS011;57617;51.988;5.854;2023-04-06T10:30:03;33.70;;;14.45;;
70228;SDS011;57617;51.988;5.854;2023-04-06T10:32:33;29.70;;;14.25;;
70228;SDS011;57617;51.988;5.854;2023-04-06T10:35:10;28.45;;;15.00;;
70228;SDS011;57617;51.988;5.854;2023-04-06T10:38:00;31.90;;;13.98;;
70228;SDS011;57617;51.988;5.854;2023-04-06T10:40:27;27.20;;;13.38;;
70228;SDS011;57617;51.988;5.854;2023-04-06T10:42:54;30.67;;;14.65;;
70228;SDS011;57617;51.988;5.854;2023-04-06T10:45:24;26.60;;;13.35;;
70228;SDS011;57617;51.988;5.854;2023-04-06T10:47:53;31.30;;;13.90;;
70228;SDS011;57617;51.988;5.854;2023-04-06T10:50:20;26.65;;;13.15;;
70228;SDS011;57617;51.988;5.854;2023-04-06T10:52:46;28.65;;;12.90;;
70228;SDS011;57617;51.988;5.854;2023-04-06T10:55:14;25.05;;;13.63;;
70228;SDS011;57617;51.988;5.854;2023-04-06T10:57:40;28.27;;;13.30;;
70228;SDS011;57617;51.988;5.854;2023-04-06T11:00:06;24.65;;;12.80;;
70228;SDS011;57617;51.988;5.854;2023-04-06T11:02:49;27.50;;;13.00;;
70228;SDS011;57617;51.988;5.854;2023-04-06T11:05:14;26.17;;;13.27;;
70228;SDS011;57617;51.988;5.854;2023-04-06T11:07:40;30.38;;;14.38;;
70228;SDS011;57617;51.988;5.854;2023-04-06T11:10:06;24.55;;;13.40;;
70228;SDS011;57617;51.988;5.854;2023-04-06T11:12:32;27.25;;;13.68;;
70228;SDS011;57617;51.988;5.854;2023-04-06T11:14:59;33.08;;;13.57;;
70228;SDS011;57617;51.988;5.854;2023-04-06T11:17:28;27.48;;;13.00;;
70228;SDS011;57617;51.988;5.854;2023-04-06T11:19:54;22.98;;;12.57;;
70228;SDS011;57617;51.988;5.854;2023-04-06T11:22:20;25.10;;;12.65;;
70228;SDS011;57617;51.988;5.854;2023-04-06T11:24:45;23.50;;;12.25;;
70228;SDS011;57617;51.988;5.854;2023-04-06T11:27:11;25.05;;;12.05;;
70228;SDS011;57617;51.988;5.854;2023-04-06T11:29:37;20.92;;;11.40;;
70228;SDS011;57617;51.988;5.854;2023-04-06T11:32:06;25.40;;;11.98;;
70228;SDS011;57617;51.988;5.854;2023-04-06T11:34:39;21.92;;;11.07;;
70228;SDS011;57617;51.988;5.854;2023-04-06T11:37:09;20.73;;;10.50;;
70228;SDS011;57617;51.988;5.854;2023-04-06T11:39:39;19.52;;;10.45;;
70228;SDS011;57617;51.988;5.854;2023-04-06T11:42:06;17.77;;;10.02;;
70228;SDS011;57617;51.988;5.854;2023-04-06T11:44:32;19.20;;;10.43;;
70228;SDS011;57617;51.988;5.854;2023-04-06T11:47:02;25.40;;;11.63;;
70228;SDS011;57617;51.988;5.854;2023-04-06T11:49:30;24.05;;;10.93;;
70228;SDS011;57617;51.988;5.854;2023-04-06T11:51:57;22.17;;;11.10;;
70228;SDS011;57617;51.988;5.854;2023-04-06T11:54:38;24.10;;;11.05;;
70228;SDS011;57617;51.988;5.854;2023-04-06T11:57:03;19.20;;;10.20;;
70228;SDS011;57617;51.988;5.854;2023-04-06T11:59:30;18.50;;;9.63;;
70228;SDS011;57617;51.988;5.854;2023-04-06T12:01:59;18.02;;;9.50;;
70228;SDS011;57617;51.988;5.854;2023-04-06T12:04:25;17.83;;;9.07;;
70228;SDS011;57617;51.988;5.854;2023-04-06T12:06:51;16.83;;;8.50;;
70228;SDS011;57617;51.988;5.854;2023-04-06T12:09:16;14.63;;;7.78;;
70228;SDS011;57617;51.988;5.854;2023-04-06T12:11:42;14.13;;;7.60;;
70228;SDS011;57617;51.988;5.854;2023-04-06T12:14:08;15.93;;;7.78;;
70228;SDS011;57617;51.988;5.854;2023-04-06T12:16:33;16.15;;;7.72;;
70228;SDS011;57617;51.988;5.854;2023-04-06T12:18:59;17.08;;;8.23;;
70228;SDS011;57617;51.988;5.854;2023-04-06T12:21:26;15.30;;;7.38;;
70228;SDS011;57617;51.988;5.854;2023-04-06T12:23:52;17.63;;;7.53;;
70228;SDS011;57617;51.988;5.854;2023-04-06T12:26:17;15.63;;;8.05;;
70228;SDS011;57617;51.988;5.854;2023-04-06T12:28:42;16.40;;;7.90;;
70228;SDS011;57617;51.988;5.854;2023-04-06T12:31:14;15.48;;;7.70;;
70228;SDS011;57617;51.988;5.854;2023-04-06T12:33:43;13.98;;;6.85;;
70228;SDS011;57617;51.988;5.854;2023-04-06T12:36:12;13.15;;;6.70;;
70228;SDS011;57617;51.988;5.854;2023-04-06T12:38:38;13.20;;;6.95;;
70228;SDS011;57617;51.988;5.854;2023-04-06T12:41:04;15.00;;;6.80;;
70228;SDS011;57617;51.988;5.854;2023-04-06T12:43:30;13.15;;;6.60;;
70228;SDS011;57617;51.988;5.854;2023-04-06T12:45:55;17.50;;;7.57;;
70228;SDS011;57617;51.988;5.854;2023-04-06T12:48:21;13.57;;;6.88;;
70228;SDS011;57617;51.988;5.854;2023-04-06T12:50:53;13.88;;;6.63;;
70228;SDS011;57617;51.988;5.854;2023-04-06T12:53:19;12.02;;;6.57;;
70228;SDS011;57617;51.988;5.854;2023-04-06T12:55:45;13.77;;;7.03;;
70228;SDS011;57617;51.988;5.854;2023-04-06T12:58:10;11.23;;;5.88;;
70228;SDS011;57617;51.988;5.854;2023-04-06T13:00:36;10.82;;;5.90;;
70228;SDS011;57617;51.988;5.854;2023-04-06T13:03:01;11.70;;;6.13;;
70228;SDS011;57617;51.988;5.854;2023-04-06T13:05:27;11.48;;;5.78;;
70228;SDS011;57617;51.988;5.854;2023-04-06T13:07:52;12.45;;;6.13;;
70228;SDS011;57617;51.988;5.854;2023-04-06T13:10:17;10.55;;;5.70;;
70228;SDS011;57617;51.988;5.854;2023-04-06T13:12:42;13.13;;;6.35;;
70228;SDS011;57617;51.988;5.854;2023-04-06T13:15:08;12.90;;;6.53;;
70228;SDS011;57617;51.988;5.854;2023-04-06T13:17:33;12.23;;;6.68;;
70228;SDS011;57617;51.988;5.854;2023-04-06T13:19:59;12.52;;;6.50;;
70228;SDS011;57617;51.988;5.854;2023-04-06T13:22:24;14.73;;;6.78;;
70228;SDS011;57617;51.988;5.854;2023-04-06T13:24:49;12.65;;;6.28;;
70228;SDS011;57617;51.988;5.854;2023-04-06T13:27:15;10.95;;;5.55;;
70228;SDS011;57617;51.988;5.854;2023-04-06T13:29:40;11.10;;;5.72;;
70228;SDS011;57617;51.988;5.854;2023-04-06T13:32:06;14.30;;;6.72;;
70228;SDS011;57617;51.988;5.854;2023-04-06T13:34:31;14.02;;;6.70;;
70228;SDS011;57617;51.988;5.854;2023-04-06T13:36:56;13.43;;;6.45;;
70228;SDS011;57617;51.988;5.854;2023-04-06T13:39:21;12.55;;;6.47;;
70228;SDS011;57617;51.988;5.854;2023-04-06T13:41:47;16.45;;;7.60;;
70228;SDS011;57617;51.988;5.854;2023-04-06T13:44:12;19.65;;;8.82;;
70228;SDS011;57617;51.988;5.854;2023-04-06T13:46:37;16.30;;;8.35;;
70228;SDS011;57617;51.988;5.854;2023-04-06T13:49:02;18.60;;;8.25;;
70228;SDS011;57617;51.988;5.854;2023-04-06T13:51:28;20.23;;;8.88;;
70228;SDS011;57617;51.988;5.854;2023-04-06T13:53:53;17.30;;;8.75;;
70228;SDS011;57617;51.988;5.854;2023-04-06T13:56:18;17.58;;;8.77;;
70228;SDS011;57617;51.988;5.854;2023-04-06T13:58:44;17.63;;;8.80;;
70228;SDS011;57617;51.988;5.854;2023-04-06T14:01:10;19.10;;;9.40;;
70228;SDS011;57617;51.988;5.854;2023-04-06T14:03:35;17.17;;;8.23;;
70228;SDS011;57617;51.988;5.854;2023-04-06T14:06:01;15.90;;;7.85;;
70228;SDS011;57617;51.988;5.854;2023-04-06T14:08:34;17.58;;;9.07;;
70228;SDS011;57617;51.988;5.854;2023-04-06T14:10:59;18.70;;;9.32;;
70228;SDS011;57617;51.988;5.854;2023-04-06T14:13:24;17.02;;;8.65;;
70228;SDS011;57617;51.988;5.854;2023-04-06T14:15:52;18.25;;;8.93;;
70228;SDS011;57617;51.988;5.854;2023-04-06T14:18:19;18.17;;;9.23;;
70228;SDS011;57617;51.988;5.854;2023-04-06T14:20:44;18.77;;;8.93;;
70228;SDS011;57617;51.988;5.854;2023-04-06T14:23:09;20.65;;;9.65;;
70228;SDS011;57617;51.988;5.854;2023-04-06T14:25:35;20.20;;;10.40;;
70228;SDS011;57617;51.988;5.854;2023-04-06T14:28:01;26.52;;;10.55;;